Terminal Aerodrome Forecast
Issued by NWS Sioux Falls, SD

Home | Current Version | Previous Version | Text Only | Print | Product List | Glossary On
Versions: 1 2 3 4 5 6 7 8 9 10 11 12 13 14 15 16 17 18 19
000
FTUS43 KFSD 172346
TAFFSD
TAF
KFSD 172346Z 1800/1824 31006KT P6SM FEW250
     FM180600 14003KT P6SM VCSH BKN100
     FM180900 13004KT P6SM VCTS BKN090CB
     FM181200 14004KT P6SM SCT120
     FM181600 21004KT P6SM SCT130=

USA.gov is the U.S. government's official web portal to all federal, state and local government web resources and services.